sensor_id;sensor_type;location;lat;lon;timestamp;pressure;altitude;pressure_sealevel;temperature;humidity
48555;BME280;34336;48.270;16.716;2023-04-16T00:01:37;109325.25;;;18.16;100.00
48555;BME280;34336;48.270;16.716;2023-04-16T00:04:03;109325.25;;;18.16;100.00
48555;BME280;34336;48.270;16.716;2023-04-16T00:06:30;109325.25;;;18.16;100.00
48555;BME280;34336;48.270;16.716;2023-04-16T00:08:57;109325.25;;;18.16;100.00
48555;BME280;34336;48.270;16.716;2023-04-16T00:11:24;109325.25;;;18.16;100.00
48555;BME280;34336;48.270;16.716;2023-04-16T00:13:50;109325.25;;;18.16;100.00
48555;BME280;34336;48.270;16.716;2023-04-16T00:16:17;109325.25;;;18.16;100.00
48555;BME280;34336;48.270;16.716;2023-04-16T00:18:44;109325.25;;;18.16;100.00
48555;BME280;34336;48.270;16.716;2023-04-16T00:21:10;109325.25;;;18.16;100.00
48555;BME280;34336;48.270;16.716;2023-04-16T00:23:37;109325.25;;;18.16;100.00
48555;BME280;34336;48.270;16.716;2023-04-16T00:26:04;109325.25;;;18.16;100.00
48555;BME280;34336;48.270;16.716;2023-04-16T00:28:30;109325.25;;;18.16;100.00
48555;BME280;34336;48.270;16.716;2023-04-16T00:30:57;109325.25;;;18.16;100.00
48555;BME280;34336;48.270;16.716;2023-04-16T00:33:24;109325.25;;;18.16;100.00
48555;BME280;34336;48.270;16.716;2023-04-16T00:35:51;109325.25;;;18.16;100.00
48555;BME280;34336;48.270;16.716;2023-04-16T00:38:18;109325.25;;;18.16;100.00
48555;BME280;34336;48.270;16.716;2023-04-16T00:40:44;109325.25;;;18.16;100.00
48555;BME280;34336;48.270;16.716;2023-04-16T00:43:18;109325.25;;;18.16;100.00
48555;BME280;34336;48.270;16.716;2023-04-16T00:45:45;109325.25;;;18.16;100.00
48555;BME280;34336;48.270;16.716;2023-04-16T00:48:12;109325.25;;;18.16;100.00
48555;BME280;34336;48.270;16.716;2023-04-16T00:50:39;109325.25;;;18.16;100.00
48555;BME280;34336;48.270;16.716;2023-04-16T00:53:06;109325.25;;;18.16;100.00
48555;BME280;34336;48.270;16.716;2023-04-16T00:55:33;109325.25;;;18.16;100.00
48555;BME280;34336;48.270;16.716;2023-04-16T00:57:59;109325.25;;;18.16;100.00
48555;BME280;34336;48.270;16.716;2023-04-16T01:00:26;109325.25;;;18.16;100.00
48555;BME280;34336;48.270;16.716;2023-04-16T01:02:53;109325.25;;;18.16;100.00
48555;BME280;34336;48.270;16.716;2023-04-16T01:05:20;109325.25;;;18.16;100.00
48555;BME280;34336;48.270;16.716;2023-04-16T01:07:47;109325.25;;;18.16;100.00
48555;BME280;34336;48.270;16.716;2023-04-16T01:10:13;109325.25;;;18.16;100.00
48555;BME280;34336;48.270;16.716;2023-04-16T01:12:40;109325.25;;;18.16;100.00
48555;BME280;34336;48.270;16.716;2023-04-16T01:15:07;109325.25;;;18.16;100.00
48555;BME280;34336;48.270;16.716;2023-04-16T01:17:33;109325.25;;;18.16;100.00
48555;BME280;34336;48.270;16.716;2023-04-16T01:20:00;109325.25;;;18.16;100.00
48555;BME280;34336;48.270;16.716;2023-04-16T01:22:27;109325.25;;;18.16;100.00
48555;BME280;34336;48.270;16.716;2023-04-16T01:24:54;109325.25;;;18.16;100.00
48555;BME280;34336;48.270;16.716;2023-04-16T01:27:22;109325.25;;;18.16;100.00
48555;BME280;34336;48.270;16.716;2023-04-16T01:29:48;109325.25;;;18.16;100.00
48555;BME280;34336;48.270;16.716;2023-04-16T01:32:21;109325.25;;;18.16;100.00
48555;BME280;34336;48.270;16.716;2023-04-16T01:34:47;109325.25;;;18.16;100.00
48555;BME280;34336;48.270;16.716;2023-04-16T01:37:14;109325.25;;;18.16;100.00
48555;BME280;34336;48.270;16.716;2023-04-16T01:39:41;109325.25;;;18.16;100.00
48555;BME280;34336;48.270;16.716;2023-04-16T01:42:07;109325.25;;;18.16;100.00
48555;BME280;34336;48.270;16.716;2023-04-16T01:44:34;109325.25;;;18.16;100.00
48555;BME280;34336;48.270;16.716;2023-04-16T01:47:01;109325.25;;;18.16;100.00
48555;BME280;34336;48.270;16.716;2023-04-16T01:49:27;109325.25;;;18.16;100.00
48555;BME280;34336;48.270;16.716;2023-04-16T01:51:54;109325.25;;;18.16;100.00
48555;BME280;34336;48.270;16.716;2023-04-16T01:54:21;109325.25;;;18.16;100.00
48555;BME280;34336;48.270;16.716;2023-04-16T01:56:48;109325.25;;;18.16;100.00
48555;BME280;34336;48.270;16.716;2023-04-16T01:59:16;109325.25;;;18.16;100.00
48555;BME280;34336;48.270;16.716;2023-04-16T02:01:43;109325.25;;;18.16;100.00
48555;BME280;34336;48.270;16.716;2023-04-16T02:04:10;109325.25;;;18.16;100.00
48555;BME280;34336;48.270;16.716;2023-04-16T02:06:38;109325.25;;;18.16;100.00
48555;BME280;34336;48.270;16.716;2023-04-16T02:09:04;109325.25;;;18.16;100.00
48555;BME280;34336;48.270;16.716;2023-04-16T02:11:31;109325.25;;;18.16;100.00
48555;BME280;34336;48.270;16.716;2023-04-16T02:13:58;109325.25;;;18.16;100.00
48555;BME280;34336;48.270;16.716;2023-04-16T02:16:24;109325.25;;;18.16;100.00
48555;BME280;34336;48.270;16.716;2023-04-16T02:18:57;109325.25;;;18.16;100.00
48555;BME280;34336;48.270;16.716;2023-04-16T02:21:27;109325.25;;;18.16;100.00
48555;BME280;34336;48.270;16.716;2023-04-16T02:23:54;109325.25;;;18.16;100.00
48555;BME280;34336;48.270;16.716;2023-04-16T02:26:25;109325.25;;;18.16;100.00
48555;BME280;34336;48.270;16.716;2023-04-16T02:28:55;109325.25;;;18.16;100.00
48555;BME280;34336;48.270;16.716;2023-04-16T02:31:27;109325.25;;;18.16;100.00
48555;BME280;34336;48.270;16.716;2023-04-16T02:33:55;109325.25;;;18.16;100.00
48555;BME280;34336;48.270;16.716;2023-04-16T02:36:21;109325.25;;;18.16;100.00
48555;BME280;34336;48.270;16.716;2023-04-16T02:38:48;109325.25;;;18.16;100.00
48555;BME280;34336;48.270;16.716;2023-04-16T02:41:15;109325.25;;;18.16;100.00
48555;BME280;34336;48.270;16.716;2023-04-16T02:43:43;109325.25;;;18.16;100.00
48555;BME280;34336;48.270;16.716;2023-04-16T02:46:10;109325.25;;;18.16;100.00
48555;BME280;34336;48.270;16.716;2023-04-16T02:48:37;109325.25;;;18.16;100.00
48555;BME280;34336;48.270;16.716;2023-04-16T02:51:04;109325.25;;;18.16;100.00
48555;BME280;34336;48.270;16.716;2023-04-16T02:53:31;109325.25;;;18.16;100.00
48555;BME280;34336;48.270;16.716;2023-04-16T02:55:57;109325.25;;;18.16;100.00
48555;BME280;34336;48.270;16.716;2023-04-16T02:58:25;109325.25;;;18.16;100.00
48555;BME280;34336;48.270;16.716;2023-04-16T03:00:52;109325.25;;;18.16;100.00
48555;BME280;34336;48.270;16.716;2023-04-16T03:03:19;109325.25;;;18.16;100.00
48555;BME280;34336;48.270;16.716;2023-04-16T03:05:46;109325.25;;;18.16;100.00
48555;BME280;34336;48.270;16.716;2023-04-16T03:08:15;109325.25;;;18.16;100.00
48555;BME280;34336;48.270;16.716;2023-04-16T03:10:41;109325.25;;;18.16;100.00
48555;BME280;34336;48.270;16.716;2023-04-16T03:13:08;109325.25;;;18.16;100.00
48555;BME280;34336;48.270;16.716;2023-04-16T03:15:34;109325.25;;;18.16;100.00
48555;BME280;34336;48.270;16.716;2023-04-16T03:18:01;109325.25;;;18.16;100.00
48555;BME280;34336;48.270;16.716;2023-04-16T03:20:28;109325.25;;;18.16;100.00
48555;BME280;34336;48.270;16.716;2023-04-16T03:22:55;109325.25;;;18.16;100.00
48555;BME280;34336;48.270;16.716;2023-04-16T03:25:22;109325.25;;;18.16;100.00
48555;BME280;34336;48.270;16.716;2023-04-16T03:27:49;109325.25;;;18.16;100.00
48555;BME280;34336;48.270;16.716;2023-04-16T03:30:16;109325.25;;;18.16;100.00
48555;BME280;34336;48.270;16.716;2023-04-16T03:32:43;109325.25;;;18.16;100.00
48555;BME280;34336;48.270;16.716;2023-04-16T03:35:10;109325.25;;;18.16;100.00
48555;BME280;34336;48.270;16.716;2023-04-16T03:37:38;109325.25;;;18.16;100.00
48555;BME280;34336;48.270;16.716;2023-04-16T03:40:04;109325.25;;;18.16;100.00
48555;BME280;34336;48.270;16.716;2023-04-16T03:42:32;109325.25;;;18.16;100.00
48555;BME280;34336;48.270;16.716;2023-04-16T03:44:59;109325.25;;;18.16;100.00
48555;BME280;34336;48.270;16.716;2023-04-16T03:47:26;109325.25;;;18.16;100.00
48555;BME280;34336;48.270;16.716;2023-04-16T03:49:57;109325.25;;;18.16;100.00
48555;BME280;34336;48.270;16.716;2023-04-16T03:52:24;109325.25;;;18.16;100.00
48555;BME280;34336;48.270;16.716;2023-04-16T03:54:51;109325.25;;;18.16;100.00
48555;BME280;34336;48.270;16.716;2023-04-16T03:57:23;109325.25;;;18.16;100.00
48555;BME280;34336;48.270;16.716;2023-04-16T03:59:53;109325.25;;;18.16;100.00
48555;BME280;34336;48.270;16.716;2023-04-16T04:02:21;109325.25;;;18.16;100.00
48555;BME280;34336;48.270;16.716;2023-04-16T04:04:48;109325.25;;;18.16;100.00
48555;BME280;34336;48.270;16.716;2023-04-16T04:07:16;109325.25;;;18.16;100.00
48555;BME280;34336;48.270;16.716;2023-04-16T04:09:43;109325.25;;;18.16;100.00
48555;BME280;34336;48.270;16.716;2023-04-16T04:12:09;109325.25;;;18.16;100.00
48555;BME280;34336;48.270;16.716;2023-04-16T04:14:39;109325.25;;;18.16;100.00
48555;BME280;34336;48.270;16.716;2023-04-16T04:17:07;109325.25;;;18.16;100.00
48555;BME280;34336;48.270;16.716;2023-04-16T04:19:33;109325.25;;;18.16;100.00
48555;BME280;34336;48.270;16.716;2023-04-16T04:22:01;109325.25;;;18.16;100.00
48555;BME280;34336;48.270;16.716;2023-04-16T04:24:28;109325.25;;;18.16;100.00
48555;BME280;34336;48.270;16.716;2023-04-16T04:26:56;109325.25;;;18.16;100.00
48555;BME280;34336;48.270;16.716;2023-04-16T04:29:23;109325.25;;;18.16;100.00
48555;BME280;34336;48.270;16.716;2023-04-16T04:31:50;109325.25;;;18.16;100.00
48555;BME280;34336;48.270;16.716;2023-04-16T04:34:17;109325.25;;;18.16;100.00
48555;BME280;34336;48.270;16.716;2023-04-16T04:36:44;109325.25;;;18.16;100.00
48555;BME280;34336;48.270;16.716;2023-04-16T04:39:12;109325.25;;;18.16;100.00
48555;BME280;34336;48.270;16.716;2023-04-16T04:41:41;109325.25;;;18.16;100.00
48555;BME280;34336;48.270;16.716;2023-04-16T04:44:08;109325.25;;;18.16;100.00
48555;BME280;34336;48.270;16.716;2023-04-16T04:46:35;109325.25;;;18.16;100.00
48555;BME280;34336;48.270;16.716;2023-04-16T04:49:01;109325.25;;;18.16;100.00
48555;BME280;34336;48.270;16.716;2023-04-16T04:51:29;109325.25;;;18.16;100.00
48555;BME280;34336;48.270;16.716;2023-04-16T04:53:57;109325.25;;;18.16;100.00
48555;BME280;34336;48.270;16.716;2023-04-16T04:56:23;109325.25;;;18.16;100.00
48555;BME280;34336;48.270;16.716;2023-04-16T04:58:50;109325.25;;;18.16;100.00
48555;BME280;34336;48.270;16.716;2023-04-16T05:01:18;109325.25;;;18.16;100.00
48555;BME280;34336;48.270;16.716;2023-04-16T05:03:45;109325.25;;;18.16;100.00
48555;BME280;34336;48.270;16.716;2023-04-16T05:06:12;109325.25;;;18.16;100.00
48555;BME280;34336;48.270;16.716;2023-04-16T05:08:38;109325.25;;;18.16;100.00
48555;BME280;34336;48.270;16.716;2023-04-16T05:11:05;109325.25;;;18.16;100.00
48555;BME280;34336;48.270;16.716;2023-04-16T05:13:31;109325.25;;;18.16;100.00
48555;BME280;34336;48.270;16.716;2023-04-16T05:15:58;109325.25;;;18.16;100.00
48555;BME280;34336;48.270;16.716;2023-04-16T05:18:25;109325.25;;;18.16;100.00
48555;BME280;34336;48.270;16.716;2023-04-16T05:20:52;109325.25;;;18.16;100.00
48555;BME280;34336;48.270;16.716;2023-04-16T05:23:18;109325.25;;;18.16;100.00
48555;BME280;34336;48.270;16.716;2023-04-16T05:25:45;109325.25;;;18.16;100.00
48555;BME280;34336;48.270;16.716;2023-04-16T05:28:11;109325.25;;;18.16;100.00
48555;BME280;34336;48.270;16.716;2023-04-16T05:30:38;109325.25;;;18.16;100.00
48555;BME280;34336;48.270;16.716;2023-04-16T05:33:05;109325.25;;;18.16;100.00
48555;BME280;34336;48.270;16.716;2023-04-16T05:35:31;109325.25;;;18.16;100.00
48555;BME280;34336;48.270;16.716;2023-04-16T05:37:58;109325.25;;;18.16;99.28
48555;BME280;34336;48.270;16.716;2023-04-16T05:40:24;109325.25;;;18.16;96.09
48555;BME280;34336;48.270;16.716;2023-04-16T05:42:51;109325.25;;;18.16;94.91
48555;BME280;34336;48.270;16.716;2023-04-16T05:45:18;109325.25;;;18.16;95.20
48555;BME280;34336;48.270;16.716;2023-04-16T05:47:44;109325.25;;;18.16;95.99
48555;BME280;34336;48.270;16.716;2023-04-16T05:50:11;109325.25;;;18.16;95.50
48555;BME280;34336;48.270;16.716;2023-04-16T05:52:38;109325.25;;;18.16;92.80
48555;BME280;34336;48.270;16.716;2023-04-16T05:55:04;109325.25;;;18.16;94.17
48555;BME280;34336;48.270;16.716;2023-04-16T05:57:32;109325.25;;;18.16;92.57
48555;BME280;34336;48.270;16.716;2023-04-16T05:59:58;109325.25;;;18.16;93.01
48555;BME280;34336;48.270;16.716;2023-04-16T06:02:25;109325.25;;;18.16;92.88
48555;BME280;34336;48.270;16.716;2023-04-16T06:04:52;109325.25;;;18.16;90.29
48555;BME280;34336;48.270;16.716;2023-04-16T06:07:19;109325.25;;;18.16;86.41
48555;BME280;34336;48.270;16.716;2023-04-16T06:09:45;109325.25;;;18.16;85.41
48555;BME280;34336;48.270;16.716;2023-04-16T06:12:12;109325.25;;;18.16;84.67
48555;BME280;34336;48.270;16.716;2023-04-16T06:14:38;109325.25;;;18.16;83.37
48555;BME280;34336;48.270;16.716;2023-04-16T06:17:05;109325.25;;;18.16;82.72
48555;BME280;34336;48.270;16.716;2023-04-16T06:19:32;109325.25;;;18.16;84.03
48555;BME280;34336;48.270;16.716;2023-04-16T06:21:58;109325.25;;;18.16;85.88
48555;BME280;34336;48.270;16.716;2023-04-16T06:24:25;109325.25;;;18.16;83.73
48555;BME280;34336;48.270;16.716;2023-04-16T06:26:52;109325.25;;;18.16;80.49
48555;BME280;34336;48.270;16.716;2023-04-16T06:29:19;109325.25;;;18.16;83.24
48555;BME280;34336;48.270;16.716;2023-04-16T06:31:51;109325.25;;;18.16;83.84
48555;BME280;34336;48.270;16.716;2023-04-16T06:34:17;109325.25;;;18.16;80.10
48555;BME280;34336;48.270;16.716;2023-04-16T06:36:44;109325.25;;;18.16;77.91
48555;BME280;34336;48.270;16.716;2023-04-16T06:39:11;109325.25;;;18.16;76.74
48555;BME280;34336;48.270;16.716;2023-04-16T06:41:37;109325.25;;;18.16;75.69
48555;BME280;34336;48.270;16.716;2023-04-16T06:44:04;109325.25;;;18.16;72.93
48555;BME280;34336;48.270;16.716;2023-04-16T06:46:31;109325.25;;;18.16;75.49
48555;BME280;34336;48.270;16.716;2023-04-16T06:48:57;109325.25;;;18.16;72.82
48555;BME280;34336;48.270;16.716;2023-04-16T06:51:24;109325.25;;;18.16;75.86
48555;BME280;34336;48.270;16.716;2023-04-16T06:53:52;109325.25;;;18.16;76.40
48555;BME280;34336;48.270;16.716;2023-04-16T06:56:18;109325.25;;;18.16;74.83
48555;BME280;34336;48.270;16.716;2023-04-16T06:58:45;109325.25;;;18.16;71.53
48555;BME280;34336;48.270;16.716;2023-04-16T07:01:11;109325.25;;;18.16;69.24
48555;BME280;34336;48.270;16.716;2023-04-16T07:03:38;109325.25;;;18.16;73.07
48555;BME280;34336;48.270;16.716;2023-04-16T07:06:05;109325.25;;;18.16;71.24
48555;BME280;34336;48.270;16.716;2023-04-16T07:08:32;109325.25;;;18.16;69.96
48555;BME280;34336;48.270;16.716;2023-04-16T07:10:58;109325.25;;;18.16;67.11
48555;BME280;34336;48.270;16.716;2023-04-16T07:13:25;109325.25;;;18.16;67.45
48555;BME280;34336;48.270;16.716;2023-04-16T07:15:53;109325.25;;;18.16;69.21
48555;BME280;34336;48.270;16.716;2023-04-16T07:18:19;109325.25;;;18.16;68.60
48555;BME280;34336;48.270;16.716;2023-04-16T07:20:47;109325.25;;;18.16;65.45
48555;BME280;34336;48.270;16.716;2023-04-16T07:23:13;109325.25;;;18.16;69.35
48555;BME280;34336;48.270;16.716;2023-04-16T07:25:40;109325.25;;;18.16;70.28
48555;BME280;34336;48.270;16.716;2023-04-16T07:28:07;109325.25;;;18.16;68.08
48555;BME280;34336;48.270;16.716;2023-04-16T07:30:34;109325.25;;;18.16;65.74
48555;BME280;34336;48.270;16.716;2023-04-16T07:33:04;109325.25;;;18.16;59.31
48555;BME280;34336;48.270;16.716;2023-04-16T07:35:31;109325.25;;;18.16;60.31
48555;BME280;34336;48.270;16.716;2023-04-16T07:37:57;109325.25;;;18.16;59.12
48555;BME280;34336;48.270;16.716;2023-04-16T07:40:24;109325.25;;;18.16;59.46
48555;BME280;34336;48.270;16.716;2023-04-16T07:42:51;109325.25;;;18.16;59.05
48555;BME280;34336;48.270;16.716;2023-04-16T07:45:18;109325.25;;;18.16;58.36
48555;BME280;34336;48.270;16.716;2023-04-16T07:47:44;109325.25;;;18.16;58.74
48555;BME280;34336;48.270;16.716;2023-04-16T07:50:11;109325.25;;;18.16;56.45
48555;BME280;34336;48.270;16.716;2023-04-16T07:52:38;109325.25;;;18.16;62.69
48555;BME280;34336;48.270;16.716;2023-04-16T07:55:07;109325.25;;;18.16;58.04
48555;BME280;34336;48.270;16.716;2023-04-16T07:57:34;109325.25;;;18.16;60.55
48555;BME280;34336;48.270;16.716;2023-04-16T08:00:01;109325.25;;;18.16;57.31
48555;BME280;34336;48.270;16.716;2023-04-16T08:02:38;109325.25;;;18.16;58.72
48555;BME280;34336;48.270;16.716;2023-04-16T08:05:05;109325.25;;;18.16;57.42
48555;BME280;34336;48.270;16.716;2023-04-16T08:07:32;109325.25;;;18.16;55.76
48555;BME280;34336;48.270;16.716;2023-04-16T08:10:00;109325.25;;;18.16;55.46
48555;BME280;34336;48.270;16.716;2023-04-16T08:12:27;109325.25;;;18.16;59.18
48555;BME280;34336;48.270;16.716;2023-04-16T08:14:54;109325.25;;;18.16;60.16
48555;BME280;34336;48.270;16.716;2023-04-16T08:17:21;109325.25;;;18.16;60.07
48555;BME280;34336;48.270;16.716;2023-04-16T08:19:48;109325.25;;;18.16;57.55
48555;BME280;34336;48.270;16.716;2023-04-16T08:22:14;109325.25;;;18.16;59.39
48555;BME280;34336;48.270;16.716;2023-04-16T08:24:41;109325.25;;;18.16;59.78
48555;BME280;34336;48.270;16.716;2023-04-16T08:27:08;109325.25;;;18.16;60.92
48555;BME280;34336;48.270;16.716;2023-04-16T08:29:44;109325.25;;;18.16;62.33
48555;BME280;34336;48.270;16.716;2023-04-16T08:32:11;109325.25;;;18.16;59.04
48555;BME280;34336;48.270;16.716;2023-04-16T08:34:38;109325.25;;;18.16;57.35
48555;BME280;34336;48.270;16.716;2023-04-16T08:37:04;109325.25;;;18.16;55.74
48555;BME280;34336;48.270;16.716;2023-04-16T08:39:31;109325.25;;;18.16;57.28
48555;BME280;34336;48.270;16.716;2023-04-16T08:41:58;109325.25;;;18.16;57.32
48555;BME280;34336;48.270;16.716;2023-04-16T08:44:26;109325.25;;;18.16;56.65
48555;BME280;34336;48.270;16.716;2023-04-16T08:46:54;109325.25;;;18.16;58.24
48555;BME280;34336;48.270;16.716;2023-04-16T08:49:25;109325.25;;;18.16;58.51
48555;BME280;34336;48.270;16.716;2023-04-16T08:51:52;109325.25;;;18.16;55.34
48555;BME280;34336;48.270;16.716;2023-04-16T08:56:46;109325.25;;;18.16;56.52
48555;BME280;34336;48.270;16.716;2023-04-16T08:59:14;109325.25;;;18.16;55.79
48555;BME280;34336;48.270;16.716;2023-04-16T09:01:40;109325.25;;;18.16;56.85
48555;BME280;34336;48.270;16.716;2023-04-16T09:04:07;109325.25;;;18.16;55.80
48555;BME280;34336;48.270;16.716;2023-04-16T09:06:35;109325.25;;;18.16;53.92
48555;BME280;34336;48.270;16.716;2023-04-16T09:09:02;109325.25;;;18.16;54.55
48555;BME280;34336;48.270;16.716;2023-04-16T09:11:30;109325.25;;;18.16;53.38
48555;BME280;34336;48.270;16.716;2023-04-16T09:13:57;109325.25;;;18.16;53.98
48555;BME280;34336;48.270;16.716;2023-04-16T09:16:23;109325.25;;;18.16;53.33
48555;BME280;34336;48.270;16.716;2023-04-16T09:18:50;109325.25;;;18.16;52.53
48555;BME280;34336;48.270;16.716;2023-04-16T09:21:17;109325.25;;;18.16;55.32
48555;BME280;34336;48.270;16.716;2023-04-16T09:23:47;109325.25;;;18.16;56.93
48555;BME280;34336;48.270;16.716;2023-04-16T09:26:13;109325.25;;;18.16;55.06
48555;BME280;34336;48.270;16.716;2023-04-16T09:28:44;109325.25;;;18.16;53.82
48555;BME280;34336;48.270;16.716;2023-04-16T09:31:12;109325.25;;;18.16;52.39
48555;BME280;34336;48.270;16.716;2023-04-16T09:33:39;109325.25;;;18.16;50.20
48555;BME280;34336;48.270;16.716;2023-04-16T09:36:05;109325.25;;;18.16;49.08
48555;BME280;34336;48.270;16.716;2023-04-16T09:38:49;109325.25;;;18.16;49.56
48555;BME280;34336;48.270;16.716;2023-04-16T09:41:24;109325.25;;;18.16;49.27
48555;BME280;34336;48.270;16.716;2023-04-16T09:43:59;109325.25;;;18.16;48.26
48555;BME280;34336;48.270;16.716;2023-04-16T09:46:30;109325.25;;;18.16;49.94
48555;BME280;34336;48.270;16.716;2023-04-16T09:51:55;109325.25;;;18.16;48.92
48555;BME280;34336;48.270;16.716;2023-04-16T09:54:22;109325.25;;;18.16;50.26
48555;BME280;34336;48.270;16.716;2023-04-16T09:56:51;109325.25;;;18.16;49.77
48555;BME280;34336;48.270;16.716;2023-04-16T09:59:22;109325.25;;;18.16;48.32
48555;BME280;34336;48.270;16.716;2023-04-16T10:01:49;109325.25;;;18.16;49.24
48555;BME280;34336;48.270;16.716;2023-04-16T10:04:16;109325.25;;;18.16;49.71
48555;BME280;34336;48.270;16.716;2023-04-16T10:06:43;109325.25;;;18.16;48.69
48555;BME280;34336;48.270;16.716;2023-04-16T10:09:13;109325.25;;;18.16;50.47
48555;BME280;34336;48.270;16.716;2023-04-16T10:11:57;109325.25;;;18.16;49.53
48555;BME280;34336;48.270;16.716;2023-04-16T10:14:24;109325.25;;;18.16;46.39
48555;BME280;34336;48.270;16.716;2023-04-16T10:16:51;109325.25;;;18.16;48.11
48555;BME280;34336;48.270;16.716;2023-04-16T10:19:18;109325.25;;;18.16;47.95
48555;BME280;34336;48.270;16.716;2023-04-16T10:21:46;109325.25;;;18.16;49.88
48555;BME280;34336;48.270;16.716;2023-04-16T10:24:13;109325.25;;;18.16;47.52
48555;BME280;34336;48.270;16.716;2023-04-16T10:26:41;109325.25;;;18.16;49.00
48555;BME280;34336;48.270;16.716;2023-04-16T10:29:10;109325.25;;;18.16;49.90
48555;BME280;34336;48.270;16.716;2023-04-16T10:31:37;109325.25;;;18.16;47.48
48555;BME280;34336;48.270;16.716;2023-04-16T10:34:06;109325.25;;;18.16;48.50
48555;BME280;34336;48.270;16.716;2023-04-16T10:36:37;109325.25;;;18.16;48.72
48555;BME280;34336;48.270;16.716;2023-04-16T10:39:03;109325.25;;;18.16;49.05
48555;BME280;34336;48.270;16.716;2023-04-16T10:41:33;109325.25;;;18.16;49.51
48555;BME280;34336;48.270;16.716;2023-04-16T10:44:06;109325.25;;;18.16;50.03
48555;BME280;34336;48.270;16.716;2023-04-16T10:46:36;109325.25;;;18.16;51.14
48555;BME280;34336;48.270;16.716;2023-04-16T10:49:22;109325.25;;;18.16;50.64
48555;BME280;34336;48.270;16.716;2023-04-16T10:51:59;109325.25;;;18.16;51.94
48555;BME280;34336;48.270;16.716;2023-04-16T10:54:28;109325.25;;;18.16;49.26
48555;BME280;34336;48.270;16.716;2023-04-16T10:56:56;109325.25;;;18.16;49.56
48555;BME280;34336;48.270;16.716;2023-04-16T10:59:23;109325.25;;;18.16;51.14
48555;BME280;34336;48.270;16.716;2023-04-16T11:01:51;109325.25;;;18.16;49.07
48555;BME280;34336;48.270;16.716;2023-04-16T11:12:16;109325.25;;;18.16;45.81
48555;BME280;34336;48.270;16.716;2023-04-16T11:14:46;109325.25;;;18.16;47.25
48555;BME280;34336;48.270;16.716;2023-04-16T11:17:13;109325.25;;;18.16;48.24
48555;BME280;34336;48.270;16.716;2023-04-16T11:19:40;109325.25;;;18.16;49.58
48555;BME280;34336;48.270;16.716;2023-04-16T11:22:07;109325.25;;;18.16;50.11
48555;BME280;34336;48.270;16.716;2023-04-16T11:24:34;109325.25;;;18.16;49.22
48555;BME280;34336;48.270;16.716;2023-04-16T11:27:01;109325.25;;;18.16;49.78
48555;BME280;34336;48.270;16.716;2023-04-16T11:29:28;109325.25;;;18.16;49.46
48555;BME280;34336;48.270;16.716;2023-04-16T11:31:54;109325.25;;;18.16;48.57
48555;BME280;34336;48.270;16.716;2023-04-16T11:34:21;109325.25;;;18.16;47.08
48555;BME280;34336;48.270;16.716;2023-04-16T11:36:51;109325.25;;;18.16;46.31
48555;BME280;34336;48.270;16.716;2023-04-16T11:39:17;109325.25;;;18.16;44.46
48555;BME280;34336;48.270;16.716;2023-04-16T11:41:44;109325.25;;;18.16;45.21
48555;BME280;34336;48.270;16.716;2023-04-16T11:44:24;109325.25;;;18.16;49.48
48555;BME280;34336;48.270;16.716;2023-04-16T11:46:52;109325.25;;;18.16;47.74
48555;BME280;34336;48.270;16.716;2023-04-16T11:49:25;109325.25;;;18.16;47.41
48555;BME280;34336;48.270;16.716;2023-04-16T11:51:52;109325.25;;;18.16;46.39
48555;BME280;34336;48.270;16.716;2023-04-16T11:54:19;109325.25;;;18.16;44.99
48555;BME280;34336;48.270;16.716;2023-04-16T11:56:46;109325.25;;;18.16;45.87
48555;BME280;34336;48.270;16.716;2023-04-16T12:01:47;109325.25;;;18.16;44.08
48555;BME280;34336;48.270;16.716;2023-04-16T12:04:16;109325.25;;;18.16;45.25
48555;BME280;34336;48.270;16.716;2023-04-16T12:09:29;109325.25;;;18.16;47.32
48555;BME280;34336;48.270;16.716;2023-04-16T12:11:55;109325.25;;;18.16;48.11
48555;BME280;34336;48.270;16.716;2023-04-16T12:14:22;109325.25;;;18.16;48.09
48555;BME280;34336;48.270;16.716;2023-04-16T12:16:49;109325.25;;;18.16;47.51
48555;BME280;34336;48.270;16.716;2023-04-16T12:19:16;109325.25;;;18.16;46.21
48555;BME280;34336;48.270;16.716;2023-04-16T12:21:44;109325.25;;;18.16;47.82
48555;BME280;34336;48.270;16.716;2023-04-16T12:24:12;109325.25;;;18.16;48.24
48555;BME280;34336;48.270;16.716;2023-04-16T12:26:42;109325.25;;;18.16;48.63
48555;BME280;34336;48.270;16.716;2023-04-16T12:29:28;109325.25;;;18.16;50.27
48555;BME280;34336;48.270;16.716;2023-04-16T12:31:54;109325.25;;;18.16;49.96
48555;BME280;34336;48.270;16.716;2023-04-16T12:34:21;109325.25;;;18.16;49.60
48555;BME280;34336;48.270;16.716;2023-04-16T12:37:08;109325.25;;;18.16;48.88
48555;BME280;34336;48.270;16.716;2023-04-16T12:39:38;109325.25;;;18.16;50.07
48555;BME280;34336;48.270;16.716;2023-04-16T12:42:05;109325.25;;;18.16;51.09
48555;BME280;34336;48.270;16.716;2023-04-16T12:44:35;109325.25;;;18.16;51.02
48555;BME280;34336;48.270;16.716;2023-04-16T12:47:01;109325.25;;;18.16;51.25
48555;BME280;34336;48.270;16.716;2023-04-16T12:49:30;109325.25;;;18.16;50.82
48555;BME280;34336;48.270;16.716;2023-04-16T12:51:56;109325.25;;;18.16;50.61
48555;BME280;34336;48.270;16.716;2023-04-16T12:54:23;109325.25;;;18.16;50.95
48555;BME280;34336;48.270;16.716;2023-04-16T12:56:50;109325.25;;;18.16;51.09